• Join FlightAware (Why Join?)
  • Login
  • US Flag 
02:01AM EDT


 

Airport Tracker/Info


-or-


 

Live Flight TrackerFlight Track Log ✈ GJS3618 ✈ 27-Jun-2013 ✈ KORD - KBZN

Flight Track Log - Related Links

Times and Time Zones

All times are in EDT time to prevent confusion due to time zone crossing. See the GJS3618 flight status page for this flight to view local times or setup timezone preferences in your user account.

Time Position Orientation Groundspeed Altitude Reporting Facility
EDT Latitude Longitude Course Direction KTS MPH feet Rate Location/Type
12:16AM 42.0000 -87.9500 270° West 163 188 2,200  Level Chicago TRACON
12:17AM 42.0000 -88.0167 270° West 212 244 3,900 1,380 Climbing Chicago TRACON
12:18AM 42.0261 -88.1625 284° West 251 289 5,800 1,620 Climbing Chicago Center
12:19AM 42.0428 -88.2597 283° West 266 306 8,200 2,400 Climbing Chicago Center
12:20AM 42.0422 -88.3606 270° West 274 315 10,800 1,980 Climbing Chicago Center
12:21AM 42.0511 -88.4664 276° West 286 329 12,300 1,500 Climbing Chicago Center
12:23AM 42.0600 -88.5811 276° West 306 352 13,900 1,440 Climbing Chicago Center
12:24AM 42.0692 -88.7064 276° West 332 382 15,300 1,500 Climbing Chicago Center
12:25AM 42.0814 -88.8394 277° West 346 398 17,000 1,620 Climbing Chicago Center
12:26AM 42.0911 -88.9706 276° West 351 404 18,600 1,800 Climbing Chicago Center
12:27AM 42.1022 -89.1242 276° West 351 404 20,700 1,440 Climbing Chicago Center
12:28AM 42.1119 -89.2572 276° West 354 407 21,600 900 Climbing Chicago Center
12:29AM 42.1203 -89.3931 275° West 361 415 22,600 1,080 Climbing Chicago Center
12:30AM 42.1294 -89.5311 275° West 366 421 23,900 1,200 Climbing Chicago Center
12:31AM 42.1369 -89.6700 274° West 370 426 25,100 1,080 Climbing Chicago Center
12:32AM 42.1475 -89.8042 276° West 363 418 26,200 900 Climbing Chicago Center
12:33AM 42.1572 -89.9244 276° West 362 417 27,000 840 Climbing Chicago Center
12:34AM 42.1667 -90.0600 275° West 365 420 28,000 1,020 Climbing Chicago Center
12:35AM 42.2022 -90.2131 287° West 359 413 29,100 960 Climbing Chicago Center
12:36AM 42.2372 -90.3386 291° West 361 415 30,000 780 Climbing Chicago Center
12:37AM 42.2719 -90.4644 290° West 361 415 30,800 720 Climbing Chicago Center
12:38AM 42.3072 -90.5911 291° West 363 418 31,500 720 Climbing Chicago Center
12:39AM 42.3419 -90.7181 290° West 363 418 32,300 720 Climbing Chicago Center
12:40AM 42.3767 -90.8461 290° West 364 419 33,000 660 Climbing Chicago Center
12:41AM 42.4119 -90.9733 291° West 365 420 33,700 600 Climbing Chicago Center
12:42AM 42.4456 -91.1022 290° West 366 421 34,300 600 Climbing Chicago Center
12:43AM 42.4867 -91.2558 290° West 364 419 35,000 540 Climbing Chicago Center
12:44AM 42.5211 -91.3858 290° West 367 422 35,500 480 Climbing Chicago Center
12:45AM 42.5544 -91.5164 289° West 367 422 36,000 240 Climbing Chicago Center
12:46AM 42.5886 -91.6500 289° West 371 427 36,000  Level Chicago Center
12:47AM 42.6244 -91.7864 290° West 378 435 36,000  Level Chicago Center
12:48AM 42.6600 -91.9211 290° West 378 435 36,000  Level Chicago Center
12:49AM 42.6942 -92.0533 289° West 373 429 36,000  Level Chicago Center
12:50AM 42.7275 -92.1872 289° West 374 430 36,000  Level Chicago Center
12:51AM 42.7628 -92.3181 290° West 373 429 36,000  Level Chicago Center
12:52AM 42.7958 -92.4528 289° West 376 433 36,000  Level Chicago Center
12:53AM 42.8294 -92.5869 289° West 377 434 36,000  Level Chicago Center
12:54AM 42.8497 -92.6667 289° West 374 430 36,000  Level Minneapolis Center
12:55AM 42.8822 -92.8008 288° West 375 432 36,000  Level Minneapolis Center
12:56AM 42.9164 -92.9333 289° West 373 429 36,000  Level Minneapolis Center
12:57AM 42.9481 -93.0672 288° West 375 432 36,000  Level Minneapolis Center
12:58AM 42.9806 -93.1997 289° West 374 430 36,000  Level Minneapolis Center
12:59AM 43.0133 -93.3333 289° West 375 432 36,000  Level Minneapolis Center
01:00AM 43.0531 -93.4925 289° West 374 430 36,000  Level Minneapolis Center
01:01AM 43.0853 -93.6275 288° West 376 433 36,000  Level Minneapolis Center
01:02AM 43.1189 -93.7658 288° West 384 442 36,000 240 Level Minneapolis Center
01:03AM 43.1511 -93.9053 288° West 387 445 36,600 720 Climbing Minneapolis Center
01:04AM 43.1833 -94.0425 288° West 383 441 37,500 660 Climbing Minneapolis Center
01:05AM 43.2133 -94.1717 288° West 367 422 38,000 240 Climbing Minneapolis Center
01:06AM 43.2444 -94.2939 289° West 357 411 38,000  Level Minneapolis Center
01:07AM 43.2789 -94.4514 287° West 358 412 38,000  Level Minneapolis Center
01:08AM 43.3111 -94.5811 289° West 358 412 38,000  Level Minneapolis Center
01:09AM 43.3403 -94.7103 287° West 355 409 38,000  Level Minneapolis Center
01:10AM 43.3694 -94.8394 287° West 354 407 38,000  Level Minneapolis Center
01:11AM 43.3986 -94.9686 287° West 355 409 38,000  Level Minneapolis Center
01:12AM 43.4283 -95.0983 288° West 355 409 38,000  Level Minneapolis Center
01:13AM 43.4581 -95.2289 287° West 358 412 38,000  Level Minneapolis Center
01:14AM 43.4872 -95.3608 287° West 360 414 38,000  Level Minneapolis Center
01:15AM 43.5161 -95.4906 287° West 356 410 38,000  Level Minneapolis Center
01:16AM 43.5450 -95.6228 287° West 358 412 38,000  Level Minneapolis Center
01:17AM 43.5739 -95.7561 287° West 361 415 38,000  Level Minneapolis Center
01:18AM 43.6031 -95.8886 287° West 361 415 38,000  Level Minneapolis Center
01:19AM 43.6319 -96.0236 287° West 363 418 38,000  Level Minneapolis Center
01:20AM 43.6611 -96.1600 287° West 367 422 38,000  Level Minneapolis Center
01:21AM 43.6903 -96.2969 286° West 369 425 38,000  Level Minneapolis Center
01:22AM 43.7194 -96.4347 286° West 372 428 38,000  Level Minneapolis Center
01:23AM 43.7481 -96.5742 286° West 373 429 38,000  Level Minneapolis Center
01:24AM 43.7778 -96.7144 286° West 376 433 38,000  Level Minneapolis Center
01:25AM 43.8061 -96.8525 286° West 374 430 38,000  Level Minneapolis Center
01:26AM 43.8344 -96.9931 286° West 376 433 38,000  Level Minneapolis Center
01:27AM 43.8633 -97.1314 286° West 374 430 38,000  Level Minneapolis Center
01:28AM 43.8928 -97.2714 286° West 378 435 38,000  Level Minneapolis Center
01:29AM 43.9206 -97.4114 285° West 378 435 38,000  Level Minneapolis Center
01:30AM 43.9483 -97.5519 285° West 378 435 38,000  Level Minneapolis Center
01:31AM 43.9806 -97.7231 285° West 381 438 38,000  Level Minneapolis Center
01:32AM 44.0094 -97.8650 286° West 381 438 38,000  Level Minneapolis Center
01:33AM 44.0372 -98.0081 285° West 384 442 38,000  Level Minneapolis Center
01:34AM 44.0658 -98.1522 285° West 388 447 38,000  Level Minneapolis Center
01:35AM 44.0950 -98.2964 286° West 388 447 38,000  Level Minneapolis Center
01:36AM 44.1222 -98.4411 285° West 387 445 38,000  Level Minneapolis Center
01:37AM 44.1492 -98.5844 285° West 384 442 38,000  Level Minneapolis Center
01:38AM 44.1750 -98.7142 286° West 383 441 38,000  Level Minneapolis Center
01:39AM 44.1989 -98.8556 283° West 378 435 38,000  Level Minneapolis Center
01:40AM 44.2261 -98.9975 285° West 378 435 38,000  Level Minneapolis Center
01:41AM 44.2519 -99.1375 284° West 375 432 38,000  Level Minneapolis Center
01:42AM 44.2783 -99.2783 285° West 375 432 38,000  Level Minneapolis Center
01:43AM 44.3047 -99.4203 285° West 376 433 38,000  Level Minneapolis Center
01:44AM 44.3289 -99.5628 283° West 376 433 38,000  Level Minneapolis Center
01:45AM 44.3536 -99.7033 284° West 374 430 38,000  Level Minneapolis Center
01:46AM 44.3794 -99.8444 284° West 373 429 38,000  Level Minneapolis Center
01:47AM 44.4031 -99.9861 283° West 373 429 38,000  Level Minneapolis Center
01:48AM 44.4289 -100.1286 284° West 375 432 38,000  Level Minneapolis Center
01:49AM 44.4539 -100.2700 284° West 374 430 38,000  Level Minneapolis Center
01:50AM 44.4775 -100.4133 283° West 375 432 38,000  Level Minneapolis Center
01:51AM 44.5019 -100.5561 284° West 375 432 38,000  Level Minneapolis Center
01:52AM 44.5267 -100.7017 283° West 380 437 38,000  Level Minneapolis Center
01:53AM 44.5511 -100.8483 283° West 384 442 38,000  Level Minneapolis Center
01:54AM 44.5761 -100.9956 283° West 386 444 38,000  Level Minneapolis Center
01:55AM 44.6008 -101.1428 283° West 386 444 38,000  Level Minneapolis Center
01:56AM 44.6261 -101.2908 284° West 388 447 38,000  Level Minneapolis Center
01:57AM 44.6511 -101.4414 283° West 392 451 38,000  Level Minneapolis Center
01:58AM 44.6756 -101.5883 283° West 389 448 38,000  Level Minneapolis Center
01:59AM 44.7036 -101.7656 283° West 387 445 38,000  Level Minneapolis Center
02:00AM 44.7272 -101.9153 283° West 390 449 38,000  Level Minneapolis Center
02:01AM 44.7508 -102.0644 283° West 391 450 38,000  Level Minneapolis Center
02:02AM 44.7683 -102.1839 282° West 393 452 38,000  Level Denver Center
02:03AM 44.7903 -102.3342 282° West 392 451 38,000  Level Denver Center
02:04AM 44.8144 -102.4847 283° West 393 452 38,000  Level Denver Center
02:05AM 44.8361 -102.6342 282° West 391 450 38,000  Level Denver Center
02:06AM 44.8594 -102.7858 282° West 394 453 38,000  Level Denver Center
02:07AM 44.8822 -102.9367 282° West 394 453 38,000  Level Denver Center
02:08AM 44.9033 -103.0892 281° West 396 456 38,000  Level Denver Center
02:09AM 44.9247 -103.2283 282° West 395 455 38,000  Level Salt Lake Center
02:10AM 44.9461 -103.3750 282° West 396 456 38,000  Level Salt Lake Center
02:12AM 44.9911 -103.6961 281° West 398 458 38,000  Level Denver Center
02:13AM 45.0122 -103.8514 281° West 396 456 38,000  Level Denver Center
02:14AM 45.0350 -104.0139 281° West 399 459 38,000  Level Denver Center
02:15AM 45.0553 -104.1628 281° West 402 463 38,000  Level Denver Center
02:16AM 45.0781 -104.3350 281° West 401 461 38,000  Level Denver Center
02:17AM 45.0994 -104.4847 281° West 408 470 38,000  Level Salt Lake Center
02:18AM 45.1189 -104.6350 280° West 407 468 38,000  Level Salt Lake Center
02:19AM 45.1375 -104.7858 280° West 407 468 38,000  Level Salt Lake Center
02:20AM 45.1611 -104.9614 281° West 407 468 38,000  Level Salt Lake Center
02:21AM 45.1794 -105.1103 280° West 404 465 38,000  Level Salt Lake Center
02:22AM 45.1989 -105.2594 281° West 403 464 38,000  Level Salt Lake Center
02:23AM 45.2197 -105.4344 280° West 404 465 38,000  Level Salt Lake Center
02:24AM 45.2392 -105.5831 281° West 403 464 38,000  Level Salt Lake Center
02:25AM 45.2575 -105.7347 280° West 406 467 38,000  Level Salt Lake Center
02:26AM 45.2781 -105.9111 279° West 406 467 38,000  Level Salt Lake Center
02:27AM 45.2961 -106.0628 280° West 406 467 38,000  Level Salt Lake Center
02:28AM 45.3144 -106.2228 279° West 410 472 38,000  Level Salt Lake Center
02:29AM 45.3333 -106.3831 280° West 412 474 38,000  Level Salt Lake Center
02:30AM 45.3522 -106.5433 280° West 411 473 38,000  Level Salt Lake Center
02:31AM 45.3697 -106.7031 279° West 410 472 38,000  Level Salt Lake Center
02:32AM 45.3872 -106.8631 279° West 411 473 38,000  Level Salt Lake Center
02:34AM 45.4050 -107.0332 279° West  Level FlightAware Approximate
02:34AM 45.4214 -107.1867 279° West 414 476 38,000  Level Salt Lake Center
02:35AM 45.4417 -107.3761 279° West 414 476 38,000  Level Salt Lake Center
02:36AM 45.4589 -107.5361 279° West 415 478 38,000  Level Salt Lake Center
02:37AM 45.4761 -107.6981 279° West 417 480 38,000  Level Salt Lake Center
02:38AM 45.4919 -107.8597 278° West 418 481 38,000  Level Salt Lake Center
02:39AM 45.5094 -108.0347 278° West 414 476 38,000  Level Salt Lake Center
02:40AM 45.5256 -108.1964 278° West 416 479 38,000  Level Salt Lake Center
02:41AM 45.5411 -108.3594 278° West 422 486 38,000  Level Salt Lake Center
02:42AM 45.5561 -108.5233 278° West 419 482 38,000  Level Salt Lake Center
02:43AM 45.5722 -108.6889 278° West 423 487 38,000  Level Salt Lake Center
02:44AM 45.5894 -108.8681 278° West 423 487 38,000  Level Salt Lake Center
02:45AM 45.6047 -109.0314 278° West 420 483 38,000 -660 Level Salt Lake Center
02:46AM 45.6200 -109.1950 278° West 420 483 36,700 -2,040 Descending Salt Lake Center
02:48AM 45.6344 -109.3558 277° West 413 475 33,900 -2,880 Descending Salt Lake Center
02:49AM 45.6492 -109.5281 277° West 406 467 30,900 -2,880 Descending Salt Lake Center
02:50AM 45.6628 -109.6814 277° West 395 455 28,100 -2,640 Descending Salt Lake Center
02:51AM 45.6744 -109.8228 277° West 385 443 25,600 -2,460 Descending Salt Lake Center
02:52AM 45.6861 -109.9633 277° West 378 435 23,200 -2,340 Descending Salt Lake Center
02:53AM 45.6992 -110.1189 277° West 363 418 20,900 -2,100 Descending Salt Lake Center
02:54AM 45.7081 -110.2506 276° West 355 409 19,000 -1,800 Descending Salt Lake Center
02:55AM 45.7186 -110.3811 277° West 351 404 17,300 -1,920 Descending Salt Lake Center
02:56AM 45.7311 -110.5322 277° West 348 400 15,100 -2,040 Descending Salt Lake Center
02:57AM 45.7414 -110.6553 277° West 340 391 13,200 -1,260 Descending Salt Lake Center
02:58AM 45.7528 -110.7942 277° West 336 387 12,600 -600 Descending Salt Lake Center
02:59AM 45.7586 -110.8894 275° West 304 350 12,000 -660 Descending Salt Lake Center
03:01AM 45.7667 -111.1500 270° West  Level FlightAware Approximate
03:02AM 45.7817 -111.2203 270° West 272 313 10,000  Level Salt Lake Center
03:03AM 45.7897 -111.3264 276° West 272 313 10,000  Level Salt Lake Center
03:04AM 45.8225 -111.4181 297° West 266 306 10,100  Climbing Salt Lake Center
03:05AM 45.8664 -111.5058 306° West 267 307 10,100 -540 Level Salt Lake Center
03:06AM 45.9192 -111.5736 318° Northwest 267 307 9,100 -540 Descending Salt Lake Center
03:07AM 45.9625 -111.4964 51° Northeast 268 308 9,100 -480 Level Salt Lake Center
03:08AM 45.9506 -111.3986 100° East 262 302 8,200 -1,080 Descending Salt Lake Center
03:09AM 45.9061 -111.3308 133° Southeast 245 282 7,000 -780 Descending Salt Lake Center
03:10AM 45.8667 -111.2769 136° Southeast 214 246 6,700 -540 Descending Salt Lake Center
03:11AM 45.8361 -111.2331 135° Southeast 174 200 6,000 -780 Descending Salt Lake Center
03:12AM 45.8075 -111.1942 137° Southeast 155 178 5,200 -780 Descending Salt Lake Center
03:13AM 45.7806 -111.1575 136° Southeast 146 168 4,500 -720 Descending Salt Lake Center